Time;durP1;ratioP1;P1;durP2;ratioP2;P2;SDS_P1;SDS_P2;PMS_P1;PMS_P2;Temp;Humidity;BMP_temperature;BMP_pressure;BME280_temperature;BME280_humidity;BME280_pressure;Samples;Min_cycle;Max_cycle;Signal;HPM_P1;HPM_P2
2022/04/28 04:00:20;;;;;;;31.85;19.70;;;3.70;99.90;;;;;;6040645;23;21812;-74
2022/04/28 04:02:47;;;;;;;29.83;19.52;;;3.70;99.90;;;;;;4976253;28;20985;-74
2022/04/28 04:05:13;;;;;;;33.55;19.38;;;3.50;99.90;;;;;;4974528;28;20444;-74
2022/04/28 04:07:39;;;;;;;34.20;20.13;;;3.50;99.90;;;;;;4976712;28;20032;-74
2022/04/28 04:10:10;;;;;;;33.58;19.55;;;3.60;99.90;;;;;;4975074;28;20035;-74
2022/04/28 04:12:36;;;;;;;31.77;19.02;;;3.50;99.90;;;;;;4976726;28;20023;-74
2022/04/28 04:15:02;;;;;;;31.17;18.95;;;3.50;99.90;;;;;;4976662;28;20035;-74
2022/04/28 04:17:28;;;;;;;32.47;20.45;;;3.50;99.90;;;;;;4976429;28;20075;-74
2022/04/28 04:19:53;;;;;;;40.30;22.02;;;3.60;99.90;;;;;;4976508;28;20063;-74
2022/04/28 04:22:19;;;;;;;36.30;21.23;;;3.60;99.90;;;;;;4976145;28;20039;-74
2022/04/28 04:24:44;;;;;;;37.13;21.20;;;3.80;99.90;;;;;;4975892;28;20028;-74
2022/04/28 04:27:10;;;;;;;34.70;21.25;;;3.80;99.90;;;;;;4976399;28;20030;-73
2022/04/28 04:29:37;;;;;;;33.40;20.25;;;3.90;99.90;;;;;;4976208;28;20035;-74
2022/04/28 04:32:18;;;;;;;30.60;20.15;;;3.80;99.90;;;;;;4975946;28;20074;-74
2022/04/28 04:34:47;;;;;;;30.52;19.67;;;3.70;99.90;;;;;;4974470;28;20031;-73
2022/04/28 04:37:13;;;;;;;34.55;20.75;;;3.60;99.90;;;;;;4974625;28;20039;-74
2022/04/28 04:39:43;;;;;;;32.58;19.88;;;3.60;99.90;;;;;;4976078;28;20032;-73
2022/04/28 04:42:08;;;;;;;30.77;19.50;;;3.60;99.90;;;;;;4974209;28;20046;-75
2022/04/28 04:44:34;;;;;;;32.35;19.98;;;3.60;99.90;;;;;;4994130;28;20037;-73
2022/04/28 04:47:00;;;;;;;31.05;20.13;;;3.60;99.90;;;;;;4981671;28;20046;-75
2022/04/28 04:49:25;;;;;;;32.58;19.27;;;3.60;99.90;;;;;;4975104;28;20043;-75
2022/04/28 04:51:51;;;;;;;31.00;20.33;;;3.60;99.90;;;;;;4978111;28;20074;-74
2022/04/28 04:54:17;;;;;;;30.75;19.90;;;3.60;99.90;;;;;;4985446;28;20035;-74
2022/04/28 04:56:43;;;;;;;28.83;19.67;;;3.60;99.90;;;;;;4983408;28;20047;-75
2022/04/28 04:59:08;;;;;;;30.05;18.95;;;3.70;99.90;;;;;;4976898;28;20505;-75
2022/04/28 05:01:34;;;;;;;30.20;19.02;;;3.70;99.90;;;;;;4975794;28;20054;-81
2022/04/28 05:03:59;;;;;;;31.65;19.98;;;3.80;99.90;;;;;;4975981;28;20042;-75
2022/04/28 05:06:25;;;;;;;32.50;20.25;;;3.80;99.90;;;;;;4974313;28;20035;-76
2022/04/28 05:08:51;;;;;;;31.63;20.50;;;3.80;99.90;;;;;;4976469;28;20508;-75
2022/04/28 05:11:17;;;;;;;27.73;18.85;;;3.90;99.90;;;;;;4976162;28;20413;-76
2022/04/28 05:13:43;;;;;;;32.22;20.55;;;3.90;99.90;;;;;;4984283;28;20043;-75
2022/04/28 05:16:09;;;;;;;34.55;20.40;;;4.00;99.90;;;;;;4986062;28;20050;-74
2022/04/28 05:18:34;;;;;;;32.15;20.42;;;4.10;99.90;;;;;;4977641;28;20031;-77
2022/04/28 05:21:00;;;;;;;32.88;20.42;;;4.20;99.90;;;;;;4976156;28;20794;-74
2022/04/28 05:23:26;;;;;;;31.38;20.40;;;4.30;99.90;;;;;;4975625;28;20042;-74
2022/04/28 05:25:51;;;;;;;31.95;21.58;;;4.30;99.90;;;;;;4976006;28;20040;-77
2022/04/28 05:28:17;;;;;;;34.97;22.40;;;4.40;99.90;;;;;;4976079;28;20496;-76
2022/04/28 05:30:43;;;;;;;36.53;22.55;;;4.50;99.90;;;;;;4975163;28;20035;-74
2022/04/28 05:33:08;;;;;;;35.25;22.38;;;4.60;99.90;;;;;;4975196;28;20038;-74
2022/04/28 05:35:38;;;;;;;31.30;21.58;;;4.70;99.90;;;;;;4975097;28;20039;-74
2022/04/28 05:38:04;;;;;;;40.28;23.67;;;4.90;99.90;;;;;;4975070;28;20035;-74
2022/04/28 05:40:30;;;;;;;38.85;24.70;;;5.00;99.90;;;;;;4974595;28;20052;-75
2022/04/28 05:45:43;;;;;;;36.35;24.23;;;5.30;99.90;;;;;;4975731;28;20050;-75
2022/04/28 05:48:12;;;;;;;38.05;24.88;;;5.40;99.90;;;;;;4975122;28;20038;-75
2022/04/28 05:50:39;;;;;;;40.33;25.98;;;5.60;99.90;;;;;;4974826;28;20043;-75
2022/04/28 05:53:04;;;;;;;40.35;25.20;;;5.70;99.90;;;;;;4974881;28;20042;-75
2022/04/28 05:55:30;;;;;;;36.40;23.95;;;5.80;99.90;;;;;;4973672;28;20396;-75
2022/04/28 05:57:59;;;;;;;38.72;24.88;;;5.90;99.90;;;;;;4974236;28;20083;-76
2022/04/28 06:00:25;;;;;;;34.58;24.05;;;6.00;99.90;;;;;;4975772;28;20040;-75
2022/04/28 06:02:51;;;;;;;34.30;24.10;;;6.00;99.90;;;;;;4978373;28;20035;-76
2022/04/28 06:05:17;;;;;;;32.83;23.42;;;6.10;99.90;;;;;;4974626;28;20039;-76
2022/04/28 06:07:42;;;;;;;32.53;22.88;;;6.10;99.90;;;;;;4975891;28;20405;-74
2022/04/28 06:10:08;;;;;;;35.58;24.08;;;6.20;99.90;;;;;;4978908;28;20035;-76
2022/04/28 06:12:34;;;;;;;33.60;23.77;;;6.30;99.90;;;;;;4978768;28;20035;-75
2022/04/28 06:14:59;;;;;;;34.33;23.10;;;6.30;99.90;;;;;;4977791;28;20058;-76
2022/04/28 06:17:25;;;;;;;30.83;22.77;;;6.30;99.90;;;;;;4977016;28;20095;-75
2022/04/28 06:19:51;;;;;;;31.33;22.02;;;6.40;99.90;;;;;;4978473;28;20031;-76
2022/04/28 06:22:16;;;;;;;32.70;22.88;;;6.50;99.90;;;;;;4977094;28;20047;-75
2022/04/28 06:24:42;;;;;;;31.45;22.00;;;6.60;99.90;;;;;;4976293;28;20027;-75
2022/04/28 06:27:07;;;;;;;30.20;21.65;;;6.70;99.90;;;;;;4978134;28;20046;-75
2022/04/28 06:29:33;;;;;;;28.48;20.63;;;6.70;99.90;;;;;;4978182;28;20040;-75
2022/04/28 06:31:58;;;;;;;30.67;21.77;;;6.80;99.90;;;;;;4977642;28;20039;-75
2022/04/28 06:34:24;;;;;;;28.45;21.25;;;6.90;99.90;;;;;;4977912;28;20031;-75
2022/04/28 06:36:50;;;;;;;26.50;20.65;;;7.00;99.90;;;;;;4977834;28;20374;-75
2022/04/28 06:39:15;;;;;;;25.58;19.77;;;7.10;99.90;;;;;;4977734;28;20118;-77
2022/04/28 06:41:41;;;;;;;25.98;20.05;;;7.30;99.90;;;;;;4977852;28;20046;-76
2022/04/28 06:44:07;;;;;;;24.73;19.38;;;7.40;99.90;;;;;;4982164;28;20035;-75
2022/04/28 06:46:32;;;;;;;28.00;19.17;;;7.50;99.90;;;;;;4976661;28;20036;-75
2022/04/28 06:48:58;;;;;;;24.90;19.75;;;7.60;99.90;;;;;;4980236;28;20439;-75
2022/04/28 06:51:27;;;;;;;25.80;18.83;;;7.70;99.90;;;;;;4977339;28;20043;-77
2022/04/28 06:53:52;;;;;;;23.63;18.23;;;7.90;99.90;;;;;;4977945;28;20581;-76
2022/04/28 06:56:18;;;;;;;25.30;18.67;;;8.00;99.90;;;;;;4977949;28;20102;-76
2022/04/28 06:58:43;;;;;;;24.23;18.30;;;8.20;99.90;;;;;;4975770;28;20102;-76
2022/04/28 07:01:09;;;;;;;22.15;17.58;;;8.30;99.90;;;;;;4977438;28;20536;-75
2022/04/28 07:03:35;;;;;;;24.50;16.55;;;8.50;99.90;;;;;;4977719;28;20046;-74
2022/04/28 07:06:00;;;;;;;21.33;16.40;;;8.60;99.90;;;;;;4978543;28;20035;-75
2022/04/28 07:08:26;;;;;;;22.35;16.33;;;8.80;99.90;;;;;;4978469;28;20050;-76
2022/04/28 07:10:52;;;;;;;20.73;16.75;;;9.00;99.90;;;;;;4977789;28;20063;-75
2022/04/28 07:13:17;;;;;;;21.23;16.08;;;9.10;99.90;;;;;;4978577;28;20031;-76
2022/04/28 07:15:43;;;;;;;21.63;15.90;;;9.30;99.90;;;;;;4979520;28;20039;-76
2022/04/28 07:18:09;;;;;;;19.75;16.27;;;9.50;99.90;;;;;;4978115;28;20393;-77
2022/04/28 07:20:38;;;;;;;21.77;16.45;;;9.60;99.90;;;;;;4977606;28;20035;-76
2022/04/28 07:23:03;;;;;;;20.30;15.63;;;9.80;99.90;;;;;;4979124;28;20125;-75
2022/04/28 07:25:30;;;;;;;21.13;15.25;;;10.10;99.90;;;;;;4981605;28;20445;-76
2022/04/28 07:27:57;;;;;;;18.67;15.52;;;10.30;99.90;;;;;;4981445;28;20035;-75
2022/04/28 07:30:23;;;;;;;18.23;15.25;;;10.40;99.90;;;;;;4981617;28;20840;-77
2022/04/28 07:32:51;;;;;;;19.38;14.65;;;10.60;99.90;;;;;;4978302;28;20028;-75
2022/04/28 07:35:19;;;;;;;16.65;14.13;;;10.80;99.90;;;;;;4976819;28;20031;-77
2022/04/28 07:37:45;;;;;;;16.20;13.48;;;11.00;99.90;;;;;;4976851;28;20041;-75
2022/04/28 07:40:11;;;;;;;17.95;14.20;;;11.20;99.90;;;;;;4977749;28;20500;-75
2022/04/28 07:42:37;;;;;;;15.25;12.90;;;11.50;99.90;;;;;;4977470;28;20461;-75
2022/04/28 07:45:04;;;;;;;14.55;12.88;;;11.70;99.90;;;;;;4977006;28;20034;-74
2022/04/28 07:47:30;;;;;;;18.65;12.85;;;12.00;99.90;;;;;;4976570;28;20035;-76
2022/04/28 07:49:59;;;;;;;14.07;12.07;;;12.30;99.90;;;;;;4977114;28;20039;-77
2022/04/28 07:52:24;;;;;;;14.23;11.77;;;12.40;99.90;;;;;;4976707;28;20035;-76
2022/04/28 07:54:50;;;;;;;12.30;10.85;;;12.70;99.90;;;;;;4976628;28;20027;-75
2022/04/28 07:57:15;;;;;;;13.48;11.25;;;12.90;99.90;;;;;;4976616;28;20043;-77
2022/04/28 07:59:42;;;;;;;12.23;10.60;;;13.10;99.90;;;;;;4977380;28;20473;-77
2022/04/28 08:02:11;;;;;;;11.75;10.20;;;13.40;99.90;;;;;;4974753;28;20039;-77
2022/04/28 08:04:37;;;;;;;11.43;9.27;;;13.70;99.90;;;;;;4976303;28;20035;-76
2022/04/28 08:07:03;;;;;;;10.95;9.20;;;14.00;99.90;;;;;;4976906;28;20040;-76
2022/04/28 08:09:29;;;;;;;10.73;9.10;;;14.30;99.90;;;;;;4976677;28;20067;-76
2022/04/28 08:11:54;;;;;;;10.18;8.27;;;14.40;99.90;;;;;;4976329;28;20533;-76
2022/04/28 08:14:23;;;;;;;11.88;9.75;;;14.70;99.90;;;;;;4976524;28;20485;-76
2022/04/28 08:16:49;;;;;;;11.40;8.30;;;14.90;99.90;;;;;;4976176;28;20529;-76
2022/04/28 08:19:15;;;;;;;8.85;7.88;;;15.00;99.90;;;;;;4976492;28;20055;-77
2022/04/28 08:21:40;;;;;;;10.90;8.00;;;15.20;99.90;;;;;;4976283;28;20512;-77
2022/04/28 08:24:06;;;;;;;8.65;7.70;;;15.30;99.90;;;;;;4976537;28;20027;-77
2022/04/28 08:26:31;;;;;;;8.45;7.35;;;15.40;99.90;;;;;;4977090;28;20039;-76
2022/04/28 08:28:57;;;;;;;10.80;6.90;;;15.60;99.90;;;;;;4977877;28;20035;-75
2022/04/28 08:31:23;;;;;;;8.85;6.13;;;15.80;99.90;;;;;;4977380;28;20038;-77
2022/04/28 08:33:48;;;;;;;7.72;6.40;;;16.10;99.90;;;;;;4979816;28;20039;-76
2022/04/28 08:36:15;;;;;;;8.07;6.00;;;16.10;99.90;;;;;;4976507;28;20043;-77
2022/04/28 08:38:41;;;;;;;11.00;5.93;;;16.30;99.90;;;;;;4975141;28;20091;-76
2022/04/28 08:41:11;;;;;;;5.75;5.10;;;16.60;98.40;;;;;;4976036;28;20405;-75
2022/04/28 08:43:38;;;;;;;7.13;5.70;;;16.50;96.80;;;;;;4975891;28;20035;-75
2022/04/28 08:48:51;;;;;;;5.75;5.07;;;16.80;94.60;;;;;;4976010;28;20118;-76
2022/04/28 08:51:19;;;;;;;6.15;5.25;;;17.20;94.20;;;;;;4975622;28;20031;-75
2022/04/28 08:53:49;;;;;;;6.30;5.70;;;17.20;92.80;;;;;;4974378;28;20098;-74
2022/04/28 08:56:16;;;;;;;5.95;5.18;;;17.40;91.70;;;;;;4975930;28;20091;-76
2022/04/28 08:58:42;;;;;;;5.95;4.95;;;17.40;90.90;;;;;;4974390;28;20031;-74
2022/04/28 09:01:07;;;;;;;4.93;4.40;;;17.40;90.90;;;;;;4974894;28;20050;-76
2022/04/28 09:03:41;;;;;;;5.93;4.20;;;17.30;89.50;;;;;;4973939;28;20409;-75
2022/04/28 09:06:37;;;;;;;4.70;3.75;;;17.50;85.90;;;;;;4975557;28;20041;-75
2022/04/28 09:09:05;;;;;;;5.22;4.50;;;17.60;85.60;;;;;;4966923;28;20043;-74
2022/04/28 09:11:39;;;;;;;5.75;4.43;;;17.60;85.30;;;;;;4975592;28;20118;-75
2022/04/28 09:14:15;;;;;;;6.75;3.95;;;17.50;85.70;;;;;;4975720;28;20091;-76
2022/04/28 09:17:02;;;;;;;4.80;4.30;;;17.80;83.30;;;;;;4975543;28;20489;-75
2022/04/28 09:19:28;;;;;;;4.88;3.90;;;18.00;81.50;;;;;;4975430;28;20027;-75
2022/04/28 09:21:56;;;;;;;4.68;3.92;;;18.30;80.50;;;;;;4974077;28;20035;-75
2022/04/28 09:24:24;;;;;;;5.60;3.70;;;18.10;78.60;;;;;;4975359;28;20027;-74
2022/04/28 09:26:53;;;;;;;4.47;3.65;;;18.20;81.10;;;;;;4975515;28;20057;-74
2022/04/28 09:29:19;;;;;;;4.35;3.60;;;18.20;80.60;;;;;;4975220;28;20034;-74
2022/04/28 09:31:50;;;;;;;5.57;3.13;;;18.30;76.20;;;;;;4975185;28;20027;-75
2022/04/28 09:34:19;;;;;;;5.75;4.35;;;18.50;75.90;;;;;;4975360;28;20027;-76
2022/04/28 09:36:46;;;;;;;4.20;3.30;;;18.50;75.30;;;;;;4975532;28;20043;-75
2022/04/28 09:44:57;;;;;;;4.85;3.90;;;18.70;73.60;;;;;;4979090;28;20115;-77
2022/04/28 09:47:24;;;;;;;4.93;4.10;;;19.10;74.10;;;;;;4979977;28;20038;-77
2022/04/28 09:49:57;;;;;;;5.43;4.15;;;19.30;72.40;;;;;;4980133;28;20481;-78
2022/04/28 09:52:26;;;;;;;4.75;3.53;;;19.40;74.90;;;;;;4982020;28;20039;-77
2022/04/28 09:54:53;;;;;;;4.00;3.38;;;19.40;71.70;;;;;;4979919;28;20039;-77
2022/04/28 09:57:22;;;;;;;3.22;2.80;;;19.80;68.00;;;;;;4978585;28;20587;-77
2022/04/28 10:00:18;;;;;;;3.10;2.50;;;20.10;67.10;;;;;;4979386;28;20092;-76
2022/04/28 10:02:44;;;;;;;3.92;2.88;;;20.10;61.30;;;;;;4978694;28;20509;-75
2022/04/28 10:05:10;;;;;;;3.75;3.22;;;20.00;62.50;;;;;;4979215;28;20039;-77
2022/04/28 10:07:36;;;;;;;4.50;3.28;;;19.80;66.70;;;;;;4979390;28;20103;-76
2022/04/28 10:10:03;;;;;;;5.07;4.10;;;19.90;64.20;;;;;;4979184;28;20031;-76
2022/04/28 10:12:29;;;;;;;4.47;3.30;;;19.80;67.50;;;;;;4979027;28;20768;-76
2022/04/28 10:17:32;;;;;;;4.55;3.60;;;19.90;62.70;;;;;;5019541;23;40997;-82
2022/04/28 10:20:10;;;;;;;3.92;3.53;;;19.80;64.60;;;;;;5001503;28;20039;-82
2022/04/28 10:22:37;;;;;;;5.03;4.00;;;19.90;64.70;;;;;;5000847;28;20042;-80
2022/04/28 10:33:27;;;;;;;5.72;4.20;;;20.20;64.60;;;;;;4999870;28;20069;-80
2022/04/28 10:35:54;;;;;;;6.10;4.25;;;20.20;60.80;;;;;;4998675;28;20038;-79
2022/04/28 10:38:26;;;;;;;4.30;3.33;;;20.10;63.20;;;;;;4998158;28;20102;-80
2022/04/28 10:41:06;;;;;;;4.30;3.17;;;20.20;62.40;;;;;;4997823;28;20045;-80
2022/04/28 10:43:32;;;;;;;5.22;3.88;;;20.40;61.70;;;;;;4978941;28;20493;-80
2022/04/28 10:46:24;;;;;;;5.72;3.85;;;20.40;62.20;;;;;;4996951;28;20101;-80
2022/04/28 10:48:54;;;;;;;3.47;2.92;;;20.70;60.80;;;;;;4995099;28;20035;-82
2022/04/28 10:51:28;;;;;;;4.15;3.38;;;21.20;58.90;;;;;;4995423;28;20035;-80
2022/04/28 10:53:58;;;;;;;3.28;2.90;;;21.10;59.70;;;;;;4986074;28;20478;-80
2022/04/28 10:56:26;;;;;;;5.03;3.13;;;21.20;57.70;;;;;;4987025;28;20053;-83
2022/04/28 10:58:57;;;;;;;6.85;3.33;;;20.80;58.50;;;;;;4995485;28;20039;-82
2022/04/28 11:01:33;;;;;;;4.32;3.17;;;20.80;60.50;;;;;;4997524;28;20046;-80
2022/04/28 11:04:01;;;;;;;3.55;3.25;;;20.50;59.00;;;;;;4988987;28;20848;-81
2022/04/28 11:06:37;;;;;;;4.25;3.05;;;20.60;59.20;;;;;;4992660;28;20070;-82
2022/04/28 11:09:04;;;;;;;3.95;3.42;;;20.70;61.20;;;;;;4991487;28;20035;-82
2022/04/28 11:11:45;;;;;;;5.65;3.47;;;20.70;58.20;;;;;;4996423;28;20031;-80
2022/04/28 11:14:11;;;;;;;3.72;3.15;;;20.90;63.20;;;;;;4994199;28;20500;-83
2022/04/28 11:16:40;;;;;;;7.30;3.78;;;21.10;60.20;;;;;;4988753;28;20047;-80
2022/04/28 11:19:07;;;;;;;3.80;3.15;;;21.20;60.00;;;;;;4989592;28;20568;-79
2022/04/28 11:21:34;;;;;;;4.95;3.58;;;21.20;61.40;;;;;;4987513;28;20157;-79
2022/04/28 11:23:59;;;;;;;4.93;3.83;;;21.20;58.20;;;;;;4986946;28;20042;-80
2022/04/28 11:26:27;;;;;;;7.65;4.80;;;21.30;62.70;;;;;;4992046;28;20074;-79
2022/04/28 11:28:52;;;;;;;4.85;3.70;;;21.60;61.50;;;;;;4980538;28;20043;-79
2022/04/28 11:31:19;;;;;;;5.05;3.72;;;21.90;56.10;;;;;;4993671;28;20051;-79
2022/04/28 11:33:47;;;;;;;4.10;3.70;;;21.70;57.40;;;;;;4985518;28;20047;-77
2022/04/28 11:36:20;;;;;;;5.57;4.05;;;21.40;57.30;;;;;;4978170;28;20536;-78
2022/04/28 11:38:56;;;;;;;3.60;3.30;;;21.60;58.30;;;;;;4995495;28;20031;-78
2022/04/28 11:41:43;;;;;;;4.28;3.65;;;21.70;61.80;;;;;;4996686;28;20122;-78
2022/04/28 11:44:16;;;;;;;4.10;3.60;;;21.80;59.70;;;;;;4995618;28;20130;-82
2022/04/28 11:46:45;;;;;;;4.32;3.17;;;21.70;58.90;;;;;;4995322;28;20194;-79
2022/04/28 11:49:11;;;;;;;5.90;4.30;;;22.00;62.20;;;;;;4996752;28;20896;-79
2022/04/28 11:51:37;;;;;;;4.68;3.70;;;21.70;58.20;;;;;;4994870;28;20060;-78
2022/04/28 11:54:21;;;;;;;3.90;3.60;;;21.80;57.90;;;;;;4996423;28;20042;-78
2022/04/28 11:56:48;;;;;;;5.07;3.25;;;21.80;58.60;;;;;;4996846;28;20519;-79
2022/04/28 11:59:14;;;;;;;4.15;3.40;;;21.90;57.30;;;;;;4996188;28;20058;-78
2022/04/28 12:01:39;;;;;;;4.22;3.33;;;22.20;61.10;;;;;;4995215;28;20039;-78
2022/04/28 12:04:05;;;;;;;5.32;2.92;;;22.10;57.80;;;;;;4995050;28;20027;-79
2022/04/28 12:06:31;;;;;;;3.85;3.22;;;22.20;55.20;;;;;;4995319;28;20523;-78
2022/04/28 12:08:59;;;;;;;4.25;3.85;;;22.40;57.50;;;;;;4994192;28;20042;-79
2022/04/28 12:14:27;;;;;;;4.28;2.95;;;22.50;56.70;;;;;;4996617;28;20189;-83
2022/04/28 12:19:52;;;;;;;4.50;3.72;;;22.30;57.60;;;;;;4997438;28;20030;-80
2022/04/28 12:22:25;;;;;;;5.30;3.70;;;22.10;54.90;;;;;;4996272;28;20121;-80
2022/04/28 12:24:54;;;;;;;5.53;3.33;;;22.40;53.60;;;;;;4996170;28;20039;-79
2022/04/28 12:27:21;;;;;;;4.13;3.15;;;22.00;57.70;;;;;;4996248;28;20034;-82
2022/04/28 12:29:48;;;;;;;5.30;3.22;;;21.90;61.10;;;;;;4994649;28;20041;-78
2022/04/28 12:32:14;;;;;;;6.25;3.70;;;22.30;56.80;;;;;;4982055;28;20090;-80
2022/04/28 12:34:40;;;;;;;3.92;3.17;;;22.30;57.10;;;;;;4977993;28;20031;-80
2022/04/28 12:37:05;;;;;;;4.20;2.95;;;22.30;55.70;;;;;;4983801;28;20090;-81
2022/04/28 12:39:57;;;;;;;3.47;3.10;;;23.00;58.10;;;;;;4987512;28;20046;-83
2022/04/28 12:42:23;;;;;;;3.80;3.25;;;23.10;55.10;;;;;;4988313;28;20122;-81
2022/04/28 12:44:49;;;;;;;4.35;3.30;;;23.00;57.30;;;;;;4987300;28;20038;-80
2022/04/28 12:47:14;;;;;;;4.35;3.13;;;23.20;55.20;;;;;;4986228;28;20035;-82
2022/04/28 12:49:45;;;;;;;4.78;2.97;;;23.10;56.90;;;;;;4986750;28;20041;-83
2022/04/28 12:52:10;;;;;;;4.97;2.90;;;23.50;53.00;;;;;;4976149;28;20039;-85
2022/04/28 12:54:36;;;;;;;4.15;3.38;;;23.50;56.00;;;;;;4978028;28;20040;-82
2022/04/28 12:57:03;;;;;;;4.80;3.20;;;23.20;52.90;;;;;;4977592;28;20039;-82
2022/04/28 12:59:35;;;;;;;3.40;2.88;;;23.00;54.90;;;;;;4975745;28;20036;-81
2022/04/28 13:02:00;;;;;;;3.00;2.60;;;23.00;56.20;;;;;;5008809;28;20046;-82
2022/04/28 13:04:27;;;;;;;3.35;3.00;;;22.90;51.70;;;;;;4976498;28;20043;-82
2022/04/28 13:06:53;;;;;;;4.25;2.75;;;23.00;53.80;;;;;;4975885;28;20524;-83
2022/04/28 13:09:20;;;;;;;7.82;2.80;;;23.20;56.40;;;;;;4977262;28;20812;-83
2022/04/28 13:11:47;;;;;;;3.65;3.20;;;23.80;53.40;;;;;;4976096;28;20046;-82
2022/04/28 13:14:16;;;;;;;3.40;3.10;;;23.80;52.40;;;;;;4978828;28;20042;-81
2022/04/28 13:16:42;;;;;;;4.05;3.20;;;23.40;55.90;;;;;;4979352;28;20050;-81
2022/04/28 13:19:09;;;;;;;5.03;2.60;;;23.50;53.50;;;;;;5014646;28;20524;-81
2022/04/28 13:21:39;;;;;;;4.38;2.95;;;23.40;49.90;;;;;;4980070;28;20413;-81
2022/04/28 13:24:07;;;;;;;3.67;3.00;;;23.90;52.10;;;;;;4980309;28;20079;-82
2022/04/28 13:26:33;;;;;;;3.80;2.80;;;24.00;53.60;;;;;;4982461;28;20039;-81
2022/04/28 13:28:59;;;;;;;3.65;3.10;;;24.10;53.20;;;;;;4985349;28;20047;-81
2022/04/28 13:31:25;;;;;;;4.80;2.53;;;24.00;52.30;;;;;;4983951;28;20837;-82
2022/04/28 13:33:52;;;;;;;5.90;2.90;;;24.40;50.80;;;;;;4985476;28;20070;-81
2022/04/28 13:36:18;;;;;;;4.45;3.20;;;24.30;50.90;;;;;;4979557;28;20043;-82
2022/04/28 13:38:45;;;;;;;3.47;3.00;;;24.80;49.50;;;;;;4977114;28;20031;-82
2022/04/28 13:41:12;;;;;;;4.75;3.03;;;25.10;49.30;;;;;;4975579;28;20880;-82
2022/04/28 13:43:39;;;;;;;4.55;3.10;;;25.30;51.70;;;;;;4975525;28;20063;-82
2022/04/28 13:46:07;;;;;;;3.08;2.50;;;25.40;47.10;;;;;;4975818;28;20067;-82
2022/04/28 13:48:34;;;;;;;4.20;3.03;;;26.20;48.70;;;;;;4975744;28;20087;-82
2022/04/28 13:51:00;;;;;;;5.40;2.63;;;26.30;45.40;;;;;;4975688;28;20896;-84
2022/04/28 13:53:28;;;;;;;4.82;2.90;;;26.80;46.00;;;;;;4975219;28;20067;-84
2022/04/28 13:55:56;;;;;;;4.15;2.55;;;26.90;44.50;;;;;;4974828;28;20054;-83
2022/04/28 13:58:23;;;;;;;5.65;3.30;;;26.90;47.30;;;;;;4977497;28;20043;-83
2022/04/28 14:00:50;;;;;;;3.67;3.00;;;27.40;44.30;;;;;;4977103;28;20051;-83
2022/04/28 14:03:18;;;;;;;4.80;3.10;;;28.50;45.40;;;;;;4976245;28;20038;-86
2022/04/28 14:05:43;;;;;;;4.13;2.70;;;28.70;42.00;;;;;;4975942;28;20035;-83
2022/04/28 14:08:09;;;;;;;4.35;2.78;;;28.50;43.80;;;;;;4977361;28;20039;-83
2022/04/28 14:10:35;;;;;;;5.47;2.83;;;28.60;41.30;;;;;;4977461;28;20540;-84
2022/04/28 14:13:00;;;;;;;4.43;2.75;;;28.20;42.20;;;;;;5007937;28;20529;-84
2022/04/28 14:15:26;;;;;;;2.75;2.28;;;28.40;44.70;;;;;;4976364;28;20036;-83
2022/04/28 14:17:51;;;;;;;4.93;3.15;;;28.90;45.20;;;;;;4975119;28;20035;-84
2022/04/28 14:20:17;;;;;;;4.68;2.90;;;29.20;41.50;;;;;;4976712;28;20079;-83
2022/04/28 14:22:43;;;;;;;3.22;2.65;;;29.80;43.40;;;;;;5008892;28;20101;-84
2022/04/28 14:25:09;;;;;;;3.25;2.95;;;30.90;41.00;;;;;;4977019;28;20485;-84
2022/04/28 14:27:35;;;;;;;5.90;3.08;;;30.30;38.50;;;;;;4977833;28;20077;-84
2022/04/28 14:30:06;;;;;;;3.45;3.10;;;30.40;41.20;;;;;;4977912;28;20331;-84
2022/04/28 14:32:32;;;;;;;5.78;2.90;;;29.80;37.80;;;;;;5010936;28;20528;-83
2022/04/28 14:34:58;;;;;;;3.25;2.95;;;29.70;41.60;;;;;;4976889;28;20051;-84
2022/04/28 14:37:23;;;;;;;4.97;2.80;;;29.60;39.60;;;;;;4977681;28;20046;-84
2022/04/28 14:39:49;;;;;;;2.83;2.63;;;30.50;41.80;;;;;;4977061;28;20038;-84
2022/04/28 14:42:15;;;;;;;3.10;2.80;;;30.40;41.30;;;;;;4977477;28;20481;-85
2022/04/28 14:44:41;;;;;;;3.88;3.00;;;30.80;39.90;;;;;;5010131;28;20063;-84
2022/04/28 14:47:07;;;;;;;3.20;2.90;;;30.60;36.80;;;;;;4978582;28;20496;-85
2022/04/28 14:52:27;;;;;;;4.43;2.90;;;31.70;39.00;;;;;;4978809;28;20748;-84
2022/04/28 14:54:55;;;;;;;4.22;3.30;;;31.80;37.40;;;;;;4976658;28;20038;-84
2022/04/28 14:57:26;;;;;;;4.60;3.20;;;31.40;38.40;;;;;;4978304;28;20043;-84
2022/04/28 14:59:53;;;;;;;4.50;2.92;;;31.40;38.40;;;;;;4978997;28;20031;-85
2022/04/28 15:02:19;;;;;;;3.60;2.80;;;31.20;37.70;;;;;;4979629;28;20041;-84
2022/04/28 15:04:46;;;;;;;3.15;2.67;;;30.90;38.50;;;;;;4978627;28;20042;-84
2022/04/28 15:07:16;;;;;;;6.20;4.13;;;31.00;37.40;;;;;;4979245;28;20042;-85
2022/04/28 15:09:44;;;;;;;5.15;3.55;;;30.90;39.10;;;;;;4976623;28;20031;-89
2022/04/28 15:12:11;;;;;;;4.40;2.70;;;32.10;38.90;;;;;;4984107;28;20125;-85
2022/04/28 15:14:37;;;;;;;3.17;2.80;;;32.70;36.70;;;;;;4982651;28;20034;-81
2022/04/28 15:17:04;;;;;;;5.45;3.28;;;30.90;34.30;;;;;;4978584;28;20196;-82
2022/04/28 15:19:30;;;;;;;9.45;7.15;;;31.20;35.20;;;;;;4995804;28;20038;-82
2022/04/28 15:21:56;;;;;;;4.93;3.92;;;31.20;36.60;;;;;;4998747;28;20038;-82
2022/04/28 15:24:22;;;;;;;4.43;3.58;;;31.80;35.50;;;;;;4995407;28;20513;-81
2022/04/28 15:26:48;;;;;;;4.55;3.17;;;32.60;35.20;;;;;;4998527;28;20058;-83
2022/04/28 15:29:15;;;;;;;3.60;3.30;;;32.60;34.30;;;;;;4999342;28;20050;-83
2022/04/28 15:31:41;;;;;;;5.30;3.22;;;33.10;33.90;;;;;;4980762;28;20039;-85
2022/04/28 15:34:07;;;;;;;9.45;6.50;;;34.20;35.20;;;;;;4992141;28;20030;-86
2022/04/28 15:36:33;;;;;;;10.93;9.20;;;34.80;33.80;;;;;;4995486;28;20775;-76
2022/04/28 15:39:01;;;;;;;3.92;3.08;;;33.50;35.00;;;;;;4989216;28;20039;-75
2022/04/28 15:41:32;;;;;;;4.80;3.10;;;33.10;34.30;;;;;;4996752;28;20030;-77
2022/04/28 15:43:57;;;;;;;4.07;2.78;;;32.90;33.00;;;;;;4983596;28;20027;-75
2022/04/28 15:46:23;;;;;;;4.28;3.10;;;33.90;33.70;;;;;;4976690;28;20453;-76
2022/04/28 15:48:49;;;;;;;3.85;2.80;;;32.80;32.60;;;;;;4976779;28;20027;-79
2022/04/28 15:51:14;;;;;;;4.15;3.13;;;31.90;33.30;;;;;;4976563;28;20115;-75
2022/04/28 15:53:40;;;;;;;3.05;2.75;;;32.20;37.40;;;;;;4987879;28;20035;-76
2022/04/28 15:56:05;;;;;;;3.85;3.10;;;33.00;35.50;;;;;;4994627;28;20039;-74
2022/04/28 15:58:31;;;;;;;4.80;3.42;;;34.70;34.60;;;;;;4984437;28;20035;-75
2022/04/28 16:00:57;;;;;;;6.07;4.93;;;34.40;32.10;;;;;;4977277;28;20332;-74
2022/04/28 16:03:22;;;;;;;4.47;4.07;;;33.20;32.60;;;;;;4985200;28;20047;-74
2022/04/28 16:05:48;;;;;;;4.80;3.47;;;33.80;34.80;;;;;;4982265;28;20078;-76
2022/04/28 16:08:14;;;;;;;5.50;3.95;;;32.90;33.20;;;;;;4976518;28;20039;-74
2022/04/28 16:10:40;;;;;;;3.53;2.83;;;32.90;33.60;;;;;;4976576;28;20039;-74
2022/04/28 16:13:06;;;;;;;4.13;3.10;;;33.30;33.40;;;;;;4976296;28;20042;-74
2022/04/28 16:15:32;;;;;;;5.07;2.85;;;32.80;32.40;;;;;;5001822;23;20131;-72
2022/04/28 16:17:58;;;;;;;5.82;2.75;;;32.50;34.60;;;;;;4957417;28;20126;-71
2022/04/28 16:20:24;;;;;;;5.10;2.60;;;31.70;34.60;;;;;;4957385;28;20032;-71
2022/04/28 16:22:52;;;;;;;3.92;2.97;;;33.00;34.10;;;;;;4957092;28;20467;-72
2022/04/28 16:25:38;;;;;;;3.08;2.78;;;33.10;32.90;;;;;;4964896;28;20043;-73
2022/04/28 16:28:05;;;;;;;3.42;3.15;;;32.20;35.20;;;;;;4966216;28;20044;-71
2022/04/28 16:30:30;;;;;;;3.05;2.75;;;33.10;34.60;;;;;;4956896;28;20032;-72
2022/04/28 16:32:56;;;;;;;3.63;3.10;;;32.70;34.60;;;;;;4976023;28;20489;-72
2022/04/28 16:35:22;;;;;;;3.30;3.00;;;32.50;35.10;;;;;;4966092;28;20486;-73
2022/04/28 16:37:50;;;;;;;4.00;3.03;;;32.80;33.30;;;;;;4957465;28;20071;-73
2022/04/28 16:40:18;;;;;;;3.78;2.90;;;31.80;37.50;;;;;;4965680;28;20516;-73
2022/04/28 16:42:50;;;;;;;4.30;2.90;;;31.00;35.60;;;;;;4973122;28;20048;-73
2022/04/28 16:45:16;;;;;;;4.32;3.47;;;31.10;35.30;;;;;;4962015;28;20059;-73
2022/04/28 16:47:41;;;;;;;4.07;3.28;;;31.50;35.60;;;;;;4975814;28;20803;-73
2022/04/28 16:50:10;;;;;;;4.45;3.50;;;31.40;35.60;;;;;;4976538;28;20038;-74
2022/04/28 16:52:40;;;;;;;4.32;3.38;;;30.50;35.30;;;;;;4968282;28;20049;-72
2022/04/28 16:55:10;;;;;;;3.72;2.97;;;29.20;37.00;;;;;;4964843;28;20088;-76
2022/04/28 16:57:37;;;;;;;6.38;3.08;;;28.70;37.50;;;;;;4956480;28;20035;-71
2022/04/28 17:00:10;;;;;;;4.47;3.10;;;28.30;41.10;;;;;;4962470;28;20028;-72
2022/04/28 17:05:24;;;;;;;4.00;2.58;;;26.10;41.70;;;;;;4976140;28;20028;-73
2022/04/28 17:07:51;;;;;;;3.63;3.10;;;24.50;43.90;;;;;;4975533;28;20043;-71
2022/04/28 17:10:17;;;;;;;4.00;3.22;;;23.40;44.80;;;;;;4975758;28;20043;-71
2022/04/28 17:12:44;;;;;;;4.55;2.85;;;22.70;46.20;;;;;;4956952;28;20924;-71
2022/04/28 17:15:10;;;;;;;4.68;2.95;;;22.20;48.10;;;;;;4955850;28;20545;-71
2022/04/28 17:17:36;;;;;;;5.03;3.17;;;21.70;54.80;;;;;;4955692;28;20071;-73